createdAt,value
2022-12-29T00:01:57.452Z,86.94
2022-12-29T00:04:25.113Z,86.72
2022-12-29T00:06:54.708Z,86.55
2022-12-29T00:09:22.941Z,86.48
2022-12-29T00:11:52.191Z,86.26
2022-12-29T00:14:39.124Z,86.47
2022-12-29T00:17:06.762Z,86.19
2022-12-29T00:19:53.775Z,85.98
2022-12-29T00:22:40.760Z,86.01
2022-12-29T00:25:30.759Z,85.96
2022-12-29T00:28:17.001Z,85.46
2022-12-29T00:31:04.306Z,85.72
2022-12-29T00:33:52.983Z,85.66
2022-12-29T00:36:26.209Z,85.25
2022-12-29T00:39:17.696Z,84.65
2022-12-29T00:42:04.382Z,84.55
2022-12-29T00:44:32.143Z,84.21
2022-12-29T00:47:04.396Z,84.41
2022-12-29T00:49:32.932Z,84.33
2022-12-29T00:52:05.177Z,84.13
2022-12-29T00:54:35.366Z,83.89
2022-12-29T00:57:04.354Z,83.40
2022-12-29T00:59:32.232Z,83.50
2022-12-29T01:02:00.767Z,83.53
2022-12-29T01:04:29.005Z,83.67
2022-12-29T01:06:56.842Z,82.27
2022-12-29T01:09:43.141Z,81.88
2022-12-29T01:12:11.874Z,82.75
2022-12-29T01:14:39.921Z,83.01
2022-12-29T01:17:07.814Z,83.11
2022-12-29T01:19:35.498Z,83.46
2022-12-29T01:22:03.599Z,83.39
2022-12-29T01:24:31.355Z,83.44
2022-12-29T01:26:59.068Z,83.26
2022-12-29T01:29:26.888Z,83.33
2022-12-29T01:31:54.619Z,83.31
2022-12-29T01:34:22.451Z,83.06
2022-12-29T01:36:50.212Z,82.78
2022-12-29T01:39:17.924Z,82.86
2022-12-29T01:41:45.528Z,82.94
2022-12-29T01:45:01.232Z,83.03
2022-12-29T01:47:38.566Z,82.51
2022-12-29T01:50:14.621Z,82.45
2022-12-29T01:52:50.766Z,82.32
2022-12-29T01:55:19.382Z,75.93
2022-12-29T01:57:51.471Z,77.51
2022-12-29T02:00:19.590Z,73.52
2022-12-29T02:02:52.363Z,73.31
2022-12-29T02:05:38.703Z,70.51
2022-12-29T02:08:06.829Z,66.55
2022-12-29T02:10:37.144Z,66.64
2022-12-29T02:13:05.625Z,64.44
2022-12-29T02:15:49.656Z,65.86
2022-12-29T02:18:43.995Z,65.20
2022-12-29T02:21:17.377Z,62.99
2022-12-29T02:24:08.175Z,64.00
2022-12-29T02:26:53.979Z,62.61
2022-12-29T02:30:09.434Z,63.17
2022-12-29T02:32:49.055Z,59.50
2022-12-29T02:35:40.241Z,61.35
2022-12-29T02:38:32.800Z,60.97
2022-12-29T02:41:39.900Z,61.97
2022-12-29T02:44:28.979Z,61.52
2022-12-29T02:47:06.034Z,62.71
2022-12-29T02:49:46.776Z,63.16
2022-12-29T02:52:23.679Z,62.09
2022-12-29T02:54:52.104Z,62.82
2022-12-29T02:57:22.910Z,62.30
2022-12-29T02:59:56.618Z,63.63
2022-12-29T03:02:41.081Z,63.55
2022-12-29T03:05:31.192Z,63.03
2022-12-29T03:08:29.890Z,62.90
2022-12-29T03:10:57.494Z,63.10
2022-12-29T03:14:05.114Z,63.74
2022-12-29T03:16:47.813Z,63.25
2022-12-29T03:19:32.840Z,63.73
2022-12-29T03:22:27.879Z,64.21
2022-12-29T03:25:10.162Z,63.73
2022-12-29T03:27:44.358Z,64.13
2022-12-29T03:30:13.930Z,64.59
2022-12-29T03:32:48.564Z,64.70
2022-12-29T03:35:19.880Z,65.27
2022-12-29T03:38:21.480Z,65.12
2022-12-29T03:40:54.603Z,63.95
2022-12-29T03:43:22.312Z,64.81
2022-12-29T03:45:49.951Z,63.86
2022-12-29T03:48:17.752Z,65.18
2022-12-29T03:50:46.220Z,63.98
2022-12-29T03:53:14.060Z,64.48
2022-12-29T03:55:42.433Z,64.30
2022-12-29T03:58:10.145Z,63.74
2022-12-29T04:00:38.427Z,63.39
2022-12-29T04:03:06.223Z,64.14
2022-12-29T04:05:33.905Z,63.00
2022-12-29T04:08:02.216Z,63.50
2022-12-29T04:10:29.985Z,64.21
2022-12-29T04:12:57.718Z,63.86
2022-12-29T04:15:26.409Z,64.06
2022-12-29T04:17:54.392Z,64.38
2022-12-29T04:20:40.930Z,64.43
2022-12-29T04:23:09.590Z,64.63
2022-12-29T04:25:37.298Z,65.07
2022-12-29T04:28:05.287Z,65.28
2022-12-29T04:30:33.019Z,65.20
2022-12-29T04:33:00.700Z,64.48
2022-12-29T04:35:28.464Z,64.60
2022-12-29T04:37:56.156Z,64.66
2022-12-29T04:40:25.290Z,64.02
2022-12-29T04:42:52.980Z,63.65
2022-12-29T04:45:20.724Z,63.51
2022-12-29T04:47:48.461Z,63.41
2022-12-29T04:50:16.344Z,63.16
2022-12-29T04:52:44.463Z,62.71
2022-12-29T04:55:12.340Z,63.09
2022-12-29T04:57:40.053Z,63.01
2022-12-29T05:00:08.641Z,63.11
2022-12-29T05:02:36.414Z,62.97
2022-12-29T05:05:04.190Z,62.91
2022-12-29T05:07:32.107Z,62.68
2022-12-29T05:10:00.140Z,62.81
2022-12-29T05:12:28.044Z,62.94
2022-12-29T05:14:55.657Z,63.00
2022-12-29T05:17:23.279Z,63.08
2022-12-29T05:19:51.124Z,62.99
2022-12-29T05:22:18.807Z,62.95
2022-12-29T05:24:46.906Z,62.78
2022-12-29T05:27:14.799Z,62.61
2022-12-29T05:29:42.443Z,62.51
2022-12-29T05:32:10.185Z,62.35
2022-12-29T05:34:37.932Z,62.29
2022-12-29T05:37:05.641Z,62.14
2022-12-29T05:39:33.264Z,61.98
2022-12-29T05:42:00.942Z,61.66
2022-12-29T05:44:28.669Z,61.44
2022-12-29T05:46:56.420Z,61.83
2022-12-29T05:49:24.171Z,61.83
2022-12-29T05:51:51.881Z,61.95
2022-12-29T05:54:19.786Z,62.28
2022-12-29T05:56:47.541Z,63.08
2022-12-29T05:59:15.243Z,63.59
2022-12-29T06:01:42.983Z,63.93
2022-12-29T06:04:10.866Z,64.50
2022-12-29T06:06:38.764Z,65.06
2022-12-29T06:09:06.442Z,65.21
2022-12-29T06:11:34.797Z,65.30
2022-12-29T06:14:02.597Z,65.46
2022-12-29T06:16:30.319Z,65.83
2022-12-29T06:18:58.097Z,66.30
2022-12-29T06:21:25.937Z,66.74
2022-12-29T06:23:53.553Z,67.00
2022-12-29T06:26:21.326Z,67.27
2022-12-29T06:28:49.099Z,67.23
2022-12-29T06:31:16.844Z,66.49
2022-12-29T06:33:49.577Z,66.07
2022-12-29T06:36:17.813Z,65.69
2022-12-29T06:38:45.811Z,65.56
2022-12-29T06:41:13.503Z,65.64
2022-12-29T06:43:41.749Z,65.01
2022-12-29T06:46:09.553Z,64.21
2022-12-29T06:48:37.413Z,64.34
2022-12-29T06:51:05.497Z,64.39
2022-12-29T06:53:33.193Z,64.21
2022-12-29T06:56:00.958Z,63.96
2022-12-29T06:58:28.673Z,63.25
2022-12-29T07:00:56.497Z,62.51
2022-12-29T07:03:24.389Z,63.25
2022-12-29T07:05:52.149Z,63.23
2022-12-29T07:08:19.893Z,63.52
2022-12-29T07:10:48.070Z,63.22
2022-12-29T07:13:15.838Z,62.52
2022-12-29T07:15:43.636Z,62.79
2022-12-29T07:18:11.338Z,63.10
2022-12-29T07:20:39.038Z,63.52
2022-12-29T07:23:06.772Z,63.32
2022-12-29T07:25:35.053Z,63.41
2022-12-29T07:28:02.799Z,63.69
2022-12-29T07:30:30.620Z,63.66
2022-12-29T07:32:59.102Z,63.62
2022-12-29T07:35:26.930Z,63.21
2022-12-29T07:37:54.658Z,61.83
2022-12-29T07:40:22.387Z,63.11
2022-12-29T07:42:50.255Z,63.30
2022-12-29T07:45:18.189Z,63.23
2022-12-29T07:47:49.276Z,63.43
2022-12-29T07:50:17.174Z,63.01
2022-12-29T07:52:45.226Z,62.31
2022-12-29T07:55:13.119Z,63.47
2022-12-29T07:57:40.832Z,63.59
2022-12-29T08:00:09.337Z,63.38
2022-12-29T08:02:37.638Z,63.74
2022-12-29T08:05:05.790Z,63.59
2022-12-29T08:07:33.405Z,62.93
2022-12-29T08:10:01.211Z,63.50
2022-12-29T08:12:28.933Z,63.15
2022-12-29T08:14:56.669Z,63.55
2022-12-29T08:17:24.318Z,63.60
2022-12-29T08:19:52.055Z,63.57
2022-12-29T08:22:19.776Z,63.73
2022-12-29T08:24:47.488Z,64.14
2022-12-29T08:27:20.391Z,64.22
2022-12-29T08:29:48.564Z,63.59
2022-12-29T08:32:16.498Z,64.06
2022-12-29T08:34:44.248Z,64.62
2022-12-29T08:37:11.986Z,65.13
2022-12-29T08:39:40.317Z,66.48
2022-12-29T08:42:08.377Z,67.66
2022-12-29T08:44:36.037Z,69.51
2022-12-29T08:47:03.805Z,67.60
2022-12-29T08:49:31.580Z,66.62
2022-12-29T08:51:59.192Z,66.58
2022-12-29T08:54:27.038Z,66.15
2022-12-29T08:56:55.826Z,66.19
2022-12-29T08:59:23.561Z,65.70
2022-12-29T09:01:51.981Z,65.26
2022-12-29T09:04:20.023Z,65.25
2022-12-29T09:06:47.827Z,65.74
2022-12-29T09:09:15.588Z,66.42
2022-12-29T09:11:44.136Z,66.15
2022-12-29T09:14:11.881Z,65.94
2022-12-29T09:16:39.738Z,64.83
2022-12-29T09:19:07.802Z,64.39
2022-12-29T09:21:35.842Z,63.90
2022-12-29T09:24:03.707Z,62.80
2022-12-29T09:26:31.366Z,63.09
2022-12-29T09:28:59.708Z,62.93
2022-12-29T09:31:27.513Z,61.85
2022-12-29T09:33:55.123Z,61.38
2022-12-29T09:36:22.875Z,60.83
2022-12-29T09:38:51.842Z,60.48
2022-12-29T09:41:41.123Z,60.23
2022-12-29T09:44:27.548Z,58.90
2022-12-29T09:46:57.845Z,59.46
2022-12-29T09:49:48.016Z,60.12
2022-12-29T09:52:27.988Z,60.22
2022-12-29T09:55:03.137Z,60.39
2022-12-29T09:57:40.352Z,59.38
2022-12-29T10:00:20.442Z,59.09
2022-12-29T10:02:57.144Z,57.65
2022-12-29T10:05:50.239Z,57.68
2022-12-29T10:08:57.776Z,58.06
2022-12-29T10:11:56.246Z,57.52
2022-12-29T10:14:50.661Z,57.95
2022-12-29T10:17:32.710Z,56.82
2022-12-29T10:20:06.430Z,56.78
2022-12-29T10:23:10.752Z,57.90
2022-12-29T10:25:41.405Z,57.37
2022-12-29T10:28:27.346Z,58.31
2022-12-29T10:30:55.931Z,57.95
2022-12-29T10:33:27.504Z,57.48
2022-12-29T10:35:55.341Z,57.53
2022-12-29T10:38:37.756Z,53.28
2022-12-29T10:41:18.045Z,54.50
2022-12-29T10:43:53.052Z,55.07
2022-12-29T10:46:34.816Z,55.27
2022-12-29T10:49:03.975Z,54.68
2022-12-29T10:51:37.357Z,55.90
2022-12-29T10:54:21.492Z,55.03
2022-12-29T10:56:54.245Z,54.72
2022-12-29T10:59:25.716Z,53.01
2022-12-29T11:02:11.927Z,53.71
2022-12-29T11:05:07.746Z,52.20
2022-12-29T11:07:35.633Z,53.50
2022-12-29T11:10:32.826Z,52.76
2022-12-29T11:13:03.696Z,51.79
2022-12-29T11:15:44.303Z,52.99
2022-12-29T11:18:38.328Z,52.95
2022-12-29T11:21:32.449Z,52.89
2022-12-29T11:24:03.403Z,53.02
2022-12-29T11:26:34.832Z,53.85
2022-12-29T11:29:13.986Z,53.94
2022-12-29T11:32:01.183Z,53.66
2022-12-29T11:34:35.757Z,53.86
2022-12-29T11:37:12.520Z,54.39
2022-12-29T11:39:51.620Z,54.07
2022-12-29T11:42:25.681Z,53.97
2022-12-29T11:44:54.869Z,54.27
2022-12-29T11:47:31.761Z,54.71
2022-12-29T11:50:03.931Z,53.74
2022-12-29T11:52:37.148Z,54.59
2022-12-29T11:55:08.864Z,54.55
2022-12-29T11:57:37.407Z,54.83
2022-12-29T12:00:17.952Z,55.01
2022-12-29T12:03:05.942Z,54.54
2022-12-29T12:05:46.901Z,54.25
2022-12-29T12:08:23.395Z,55.12
2022-12-29T12:11:06.668Z,53.68
2022-12-29T12:13:41.303Z,54.87
2022-12-29T12:16:15.038Z,55.14
2022-12-29T12:18:47.562Z,54.21
2022-12-29T12:21:45.660Z,55.98
2022-12-29T12:24:39.985Z,56.42
2022-12-29T12:27:26.122Z,57.75
2022-12-29T12:30:17.430Z,58.10
2022-12-29T12:33:00.288Z,57.44
2022-12-29T12:36:00.591Z,57.72
2022-12-29T12:38:43.976Z,58.43
2022-12-29T12:41:40.665Z,58.16
2022-12-29T12:44:17.376Z,57.88
2022-12-29T12:47:13.803Z,58.40
2022-12-29T12:49:59.481Z,57.81
2022-12-29T12:52:48.547Z,58.55
2022-12-29T12:55:57.867Z,58.46
2022-12-29T12:58:42.815Z,59.05
2022-12-29T13:01:39.946Z,59.09
2022-12-29T13:04:46.050Z,58.70
2022-12-29T13:07:34.959Z,58.80
2022-12-29T13:10:21.001Z,58.73
2022-12-29T13:13:03.200Z,58.12
2022-12-29T13:15:59.060Z,58.59
2022-12-29T13:18:57.162Z,57.62
2022-12-29T13:21:46.442Z,57.26
2022-12-29T13:24:49.644Z,58.37
2022-12-29T13:27:33.573Z,58.20
2022-12-29T13:30:11.265Z,57.62
2022-12-29T13:32:51.577Z,57.98
2022-12-29T13:35:28.275Z,57.49
2022-12-29T13:38:05.662Z,57.77
2022-12-29T13:40:40.699Z,57.64
2022-12-29T13:43:09.249Z,57.61
2022-12-29T13:45:38.028Z,57.76
2022-12-29T13:48:39.089Z,57.67
2022-12-29T13:51:07.711Z,57.17
2022-12-29T13:53:55.272Z,57.69
2022-12-29T13:56:34.889Z,57.20
2022-12-29T13:59:20.426Z,57.42
2022-12-29T14:02:34.232Z,57.76
2022-12-29T14:05:05.088Z,57.46
2022-12-29T14:07:40.352Z,58.04
2022-12-29T14:10:08.553Z,58.66
2022-12-29T14:12:45.351Z,59.29
2022-12-29T14:15:13.026Z,60.62
2022-12-29T14:17:42.602Z,60.50
2022-12-29T14:20:23.456Z,61.20
2022-12-29T14:23:19.553Z,60.77
2022-12-29T14:26:08.769Z,61.79
2022-12-29T14:28:41.856Z,61.89
2022-12-29T14:31:21.723Z,62.17
2022-12-29T14:34:08.075Z,62.48
2022-12-29T14:36:38.615Z,62.94
2022-12-29T14:39:27.422Z,63.08
2022-12-29T14:42:13.964Z,63.53
2022-12-29T14:44:51.651Z,63.61
2022-12-29T14:47:32.623Z,63.94
2022-12-29T14:50:23.680Z,64.11
2022-12-29T14:53:02.970Z,64.09
2022-12-29T14:55:48.625Z,64.23
2022-12-29T14:58:38.038Z,64.20
2022-12-29T15:01:06.131Z,64.62
2022-12-29T15:03:38.457Z,64.59
2022-12-29T15:06:13.476Z,64.65
2022-12-29T15:09:05.651Z,64.76
2022-12-29T15:11:42.481Z,64.56
2022-12-29T15:14:41.571Z,64.56
2022-12-29T15:17:33.453Z,64.63
2022-12-29T15:20:37.555Z,64.84
2022-12-29T15:23:18.508Z,64.25
2022-12-29T15:25:55.289Z,64.60
2022-12-29T15:28:24.332Z,64.68
2022-12-29T15:30:59.432Z,64.86
2022-12-29T15:33:29.921Z,64.91
2022-12-29T15:36:04.570Z,64.99
2022-12-29T15:38:38.757Z,65.03
2022-12-29T15:41:21.735Z,65.14
2022-12-29T15:44:24.860Z,65.30
2022-12-29T15:46:52.536Z,65.44
2022-12-29T15:49:23.238Z,65.56
2022-12-29T15:51:53.900Z,65.78
2022-12-29T15:54:24.001Z,65.95
2022-12-29T15:56:52.162Z,65.85
2022-12-29T15:59:32.351Z,65.89
2022-12-29T16:02:07.160Z,65.79
2022-12-29T16:04:54.086Z,65.73
2022-12-29T16:07:40.792Z,65.79
2022-12-29T16:10:28.947Z,65.90
2022-12-29T16:12:56.849Z,66.53
2022-12-29T16:15:24.747Z,66.90
2022-12-29T16:17:55.036Z,67.12
2022-12-29T16:20:27.357Z,68.98
2022-12-29T16:22:59.881Z,69.28
2022-12-29T16:25:33.307Z,70.74
2022-12-29T16:28:03.023Z,70.95
2022-12-29T16:30:34.538Z,71.43
2022-12-29T16:33:07.763Z,72.04
2022-12-29T16:35:48.622Z,73.16
2022-12-29T16:38:20.812Z,73.11
2022-12-29T16:41:06.443Z,72.91
2022-12-29T16:43:36.782Z,73.44
2022-12-29T16:46:04.438Z,72.89
2022-12-29T16:48:36.945Z,73.16
2022-12-29T16:51:18.026Z,73.33
2022-12-29T16:53:56.488Z,73.53
2022-12-29T16:56:34.988Z,73.73
2022-12-29T16:59:08.003Z,74.07
2022-12-29T17:01:42.004Z,74.37
2022-12-29T17:04:15.396Z,74.25
2022-12-29T17:06:43.261Z,74.39
2022-12-29T17:09:28.834Z,74.36
2022-12-29T17:12:10.375Z,74.60
2022-12-29T17:14:48.476Z,74.59
2022-12-29T17:17:37.209Z,74.72
2022-12-29T17:20:18.225Z,74.81
2022-12-29T17:22:46.328Z,75.39
2022-12-29T17:25:15.942Z,75.36
2022-12-29T17:27:45.904Z,75.77
2022-12-29T17:30:17.068Z,75.99
2022-12-29T17:32:49.434Z,76.27
2022-12-29T17:35:18.667Z,76.57
2022-12-29T17:37:46.659Z,77.39
2022-12-29T17:40:23.434Z,78.84
2022-12-29T17:42:54.461Z,80.52
2022-12-29T17:45:25.802Z,81.62
2022-12-29T17:47:54.085Z,82.90
2022-12-29T17:50:24.691Z,83.79
2022-12-29T17:53:01.145Z,85.97
2022-12-29T17:55:36.729Z,89.12
2022-12-29T17:58:19.419Z,87.16
2022-12-29T18:00:49.962Z,88.50
2022-12-29T18:03:29.130Z,89.61
2022-12-29T18:05:57.267Z,90.05
2022-12-29T18:08:25.049Z,89.97
2022-12-29T18:10:55.019Z,91.44
2022-12-29T18:13:30.725Z,91.72
2022-12-29T18:16:03.763Z,91.46
2022-12-29T18:18:31.477Z,91.96
2022-12-29T18:21:01.247Z,91.74
2022-12-29T18:23:36.345Z,95.58
2022-12-29T18:26:22.333Z,94.85
2022-12-29T18:28:54.622Z,94.26
2022-12-29T18:31:28.202Z,94.21
2022-12-29T18:33:57.797Z,94.52
2022-12-29T18:36:26.102Z,96.41
2022-12-29T18:38:55.696Z,96.34
2022-12-29T18:41:30.673Z,95.34
2022-12-29T18:44:00.131Z,95.97
2022-12-29T18:46:28.039Z,96.46
2022-12-29T18:48:55.837Z,95.74
2022-12-29T18:51:25.526Z,96.88
2022-12-29T18:53:55.192Z,96.54
2022-12-29T18:56:24.062Z,98.72
2022-12-29T18:58:52.675Z,98.56
2022-12-29T19:01:23.692Z,100.00
2022-12-29T19:03:51.932Z,100.00
2022-12-29T19:06:20.601Z,100.00
2022-12-29T19:08:48.382Z,100.00
2022-12-29T19:11:16.144Z,100.00
2022-12-29T19:13:43.823Z,100.00
2022-12-29T19:16:19.635Z,100.00
2022-12-29T19:18:58.297Z,100.00
2022-12-29T19:21:35.017Z,100.00
2022-12-29T19:24:02.733Z,100.00
2022-12-29T19:26:35.560Z,100.00
2022-12-29T19:29:04.095Z,100.00
2022-12-29T19:31:31.855Z,100.00
2022-12-29T19:33:59.673Z,100.00
2022-12-29T19:36:27.284Z,100.00
2022-12-29T19:38:55.224Z,100.00
2022-12-29T19:41:23.194Z,100.00
2022-12-29T19:43:51.511Z,100.00
2022-12-29T19:46:20.929Z,100.00
2022-12-29T19:48:48.831Z,100.00
2022-12-29T19:51:18.224Z,100.00
2022-12-29T19:53:47.141Z,100.00
2022-12-29T19:56:17.930Z,100.00
2022-12-29T19:58:47.839Z,100.00
2022-12-29T20:01:21.752Z,100.00
2022-12-29T20:03:50.676Z,100.00
2022-12-29T20:06:19.049Z,100.00
2022-12-29T20:08:46.868Z,100.00
2022-12-29T20:11:17.532Z,100.00
2022-12-29T20:13:45.917Z,100.00
2022-12-29T20:16:19.194Z,100.00
2022-12-29T20:18:48.360Z,100.00
2022-12-29T20:21:21.446Z,100.00
2022-12-29T20:23:50.221Z,100.00
2022-12-29T20:26:21.676Z,100.00
2022-12-29T20:28:50.362Z,100.00
2022-12-29T20:31:24.004Z,100.00
2022-12-29T20:33:52.105Z,100.00
2022-12-29T20:36:23.087Z,100.00
2022-12-29T20:38:53.995Z,100.00
2022-12-29T20:41:22.455Z,100.00
2022-12-29T20:43:50.815Z,100.00
2022-12-29T20:46:21.856Z,100.00
2022-12-29T20:48:51.621Z,100.00
2022-12-29T20:51:20.551Z,100.00
2022-12-29T20:53:48.851Z,100.00
2022-12-29T20:56:19.340Z,100.00
2022-12-29T20:59:17.568Z,100.00
2022-12-29T21:01:36.048Z,100.00
2022-12-29T21:04:04.376Z,100.00
2022-12-29T21:06:32.580Z,100.00
2022-12-29T21:09:01.128Z,100.00
2022-12-29T21:11:29.165Z,100.00
2022-12-29T21:14:00.904Z,100.00
2022-12-29T21:16:29.423Z,100.00
2022-12-29T21:18:57.167Z,100.00
2022-12-29T21:21:26.532Z,100.00
2022-12-29T21:23:55.995Z,100.00
2022-12-29T21:26:25.281Z,100.00
2022-12-29T21:28:53.259Z,100.00
2022-12-29T21:31:27.054Z,100.00
2022-12-29T21:33:56.117Z,100.00
2022-12-29T21:36:24.653Z,100.00
2022-12-29T21:38:52.754Z,100.00
2022-12-29T21:41:20.513Z,100.00
2022-12-29T21:44:07.685Z,100.00
2022-12-29T21:46:39.318Z,100.00
2022-12-29T21:49:07.676Z,100.00
2022-12-29T21:51:55.014Z,100.00
2022-12-29T21:54:45.266Z,100.00
2022-12-29T21:57:34.719Z,100.00
2022-12-29T22:00:21.429Z,100.00
2022-12-29T22:03:08.066Z,100.00
2022-12-29T22:05:54.278Z,100.00
2022-12-29T22:08:40.788Z,100.00
2022-12-29T22:11:28.389Z,100.00
2022-12-29T22:13:56.969Z,100.00
2022-12-29T22:16:26.403Z,100.00
2022-12-29T22:18:54.453Z,100.00
2022-12-29T22:21:22.274Z,100.00
2022-12-29T22:23:49.966Z,100.00
2022-12-29T22:26:17.737Z,100.00
2022-12-29T22:28:47.407Z,100.00
2022-12-29T22:31:31.747Z,100.00
2022-12-29T22:34:02.411Z,100.00
2022-12-29T22:36:30.875Z,100.00
2022-12-29T22:38:58.523Z,100.00
2022-12-29T22:41:26.253Z,100.00
2022-12-29T22:43:54.024Z,100.00
2022-12-29T22:46:21.750Z,100.00
2022-12-29T22:48:49.591Z,100.00
2022-12-29T22:51:17.265Z,100.00
2022-12-29T22:53:46.569Z,100.00
2022-12-29T22:56:15.603Z,100.00
2022-12-29T22:58:44.889Z,100.00
2022-12-29T23:01:17.148Z,100.00
2022-12-29T23:03:45.684Z,100.00
2022-12-29T23:06:15.547Z,100.00
2022-12-29T23:08:44.230Z,100.00
2022-12-29T23:11:14.033Z,100.00
2022-12-29T23:13:43.281Z,100.00
2022-12-29T23:16:10.985Z,100.00
2022-12-29T23:18:38.820Z,100.00
2022-12-29T23:21:07.188Z,100.00
2022-12-29T23:23:53.974Z,100.00
2022-12-29T23:26:31.972Z,100.00
2022-12-29T23:29:01.479Z,100.00
2022-12-29T23:31:30.944Z,100.00
2022-12-29T23:34:00.140Z,100.00
2022-12-29T23:36:28.590Z,100.00
2022-12-29T23:38:56.785Z,100.00
2022-12-29T23:41:25.237Z,100.00
2022-12-29T23:43:53.376Z,100.00
2022-12-29T23:46:24.957Z,100.00
2022-12-29T23:48:52.879Z,100.00
2022-12-29T23:51:20.934Z,100.00
2022-12-29T23:53:48.824Z,100.00
2022-12-29T23:56:21.058Z,100.00
2022-12-29T23:58:48.902Z,100.00
